Time;durP1;ratioP1;P1;durP2;ratioP2;P2;SDS_P1;SDS_P2;PMS_P1;PMS_P2;Temp;Humidity;BMP_temperature;BMP_pressure;BME280_temperature;BME280_humidity;BME280_pressure;Samples;Min_cycle;Max_cycle;Signal;HPM_P1;HPM_P2
2023/05/20 00:00:24;;;;;;;3.43;1.00;;;;;;;11.06;100.00;102695.16;5029331;28;20277;-75
2023/05/20 00:02:50;;;;;;;1.63;1.03;;;;;;;11.03;100.00;102690.75;5028970;28;20202;-75
2023/05/20 00:05:15;;;;;;;2.23;1.27;;;;;;;11.01;100.00;102712.88;5027505;28;20210;-75
2023/05/20 00:07:40;;;;;;;1.87;1.10;;;;;;;11.02;100.00;102711.19;5028962;28;20222;-75
2023/05/20 00:10:06;;;;;;;2.23;1.30;;;;;;;10.97;100.00;102716.06;5028586;28;20293;-75
2023/05/20 00:12:33;;;;;;;2.77;1.13;;;;;;;10.99;100.00;102709.34;5007980;28;20190;-74
2023/05/20 00:14:59;;;;;;;1.70;1.07;;;;;;;11.00;100.00;102720.47;5026933;28;20222;-75
2023/05/20 00:17:26;;;;;;;3.20;1.10;;;;;;;10.95;100.00;102724.50;5028846;28;20678;-75
2023/05/20 00:19:52;;;;;;;1.90;1.10;;;;;;;10.91;100.00;102736.31;5027633;28;20222;-75
2023/05/20 00:22:17;;;;;;;3.43;1.40;;;;;;;10.90;100.00;102732.00;5025321;28;20286;-75
2023/05/20 00:24:43;;;;;;;1.30;0.73;;;;;;;10.94;100.00;102735.56;5012894;28;20210;-76
2023/05/20 00:27:08;;;;;;;3.13;1.40;;;;;;;10.89;100.00;102740.50;5028652;28;20199;-75
2023/05/20 00:29:34;;;;;;;2.13;1.03;;;;;;;10.90;100.00;102743.91;5008379;28;20759;-74
2023/05/20 00:31:59;;;;;;;1.13;1.00;;;;;;;10.90;100.00;102752.50;5009981;28;20229;-75
2023/05/20 00:34:25;;;;;;;3.00;1.30;;;;;;;10.87;100.00;102747.22;5011098;28;20758;-75
2023/05/20 00:36:51;;;;;;;2.17;1.10;;;;;;;10.88;100.00;102746.41;5028816;28;20722;-75
2023/05/20 00:39:16;;;;;;;2.10;1.30;;;;;;;10.88;100.00;102753.22;5030379;28;20246;-75
2023/05/20 00:41:41;;;;;;;3.30;1.50;;;;;;;10.83;100.00;102757.25;5010523;28;20190;-76
2023/05/20 00:44:07;;;;;;;2.53;1.50;;;;;;;10.83;100.00;102768.34;5026107;28;20667;-75
2023/05/20 00:46:33;;;;;;;2.77;1.67;;;;;;;10.82;100.00;102774.28;5010742;28;20568;-74
2023/05/20 00:48:58;;;;;;;2.83;1.30;;;;;;;10.78;100.00;102764.69;5006364;28;20226;-76
2023/05/20 00:51:24;;;;;;;2.17;1.00;;;;;;;10.78;100.00;102777.50;5007730;28;20190;-76
2023/05/20 00:53:50;;;;;;;5.47;1.20;;;;;;;10.80;100.00;102767.34;5028291;28;20190;-76
2023/05/20 00:56:17;;;;;;;1.77;1.07;;;;;;;10.81;100.00;102763.97;5013806;28;20193;-76
2023/05/20 00:58:43;;;;;;;1.87;1.10;;;;;;;10.75;100.00;102785.06;5003848;28;20210;-75
2023/05/20 01:01:08;;;;;;;1.30;0.93;;;;;;;10.76;100.00;102779.13;5010223;28;20255;-74
2023/05/20 01:03:34;;;;;;;2.17;1.00;;;;;;;10.69;100.00;102794.97;5026419;28;20210;-75
2023/05/20 01:06:00;;;;;;;2.87;1.10;;;;;;;10.70;100.00;102783.91;5027167;28;20202;-74
2023/05/20 01:08:26;;;;;;;2.80;1.57;;;;;;;10.58;100.00;102796.13;5027965;28;20228;-75
2023/05/20 01:11:03;;;;;;;1.97;1.10;;;;;;;10.61;100.00;102791.19;5011439;28;20248;-75
2023/05/20 01:13:35;;;;;;;2.30;0.90;;;;;;;10.65;100.00;102787.94;5015022;28;20281;-76
2023/05/20 01:16:02;;;;;;;3.43;1.87;;;;;;;10.57;100.00;102796.94;5028209;28;20198;-76
2023/05/20 01:18:30;;;;;;;3.43;1.37;;;;;;;10.59;100.00;102791.88;5026902;28;20220;-74
2023/05/20 01:21:00;;;;;;;2.03;1.43;;;;;;;10.60;100.00;102803.91;5010245;28;20205;-75
2023/05/20 01:23:39;;;;;;;2.20;1.30;;;;;;;10.59;100.00;102804.69;5010012;28;20600;-76
2023/05/20 01:26:08;;;;;;;2.67;1.10;;;;;;;10.52;100.00;102806.09;5027837;28;20198;-75
2023/05/20 01:28:38;;;;;;;2.87;1.37;;;;;;;10.56;100.00;102800.28;5038717;28;20214;-75
2023/05/20 01:31:05;;;;;;;3.00;1.20;;;;;;;10.52;100.00;102807.75;5015162;28;20277;-76
2023/05/20 01:33:35;;;;;;;1.83;1.13;;;;;;;10.53;100.00;102812.06;5012084;28;20186;-75
2023/05/20 01:36:01;;;;;;;1.43;1.20;;;;;;;10.51;100.00;102822.22;5037058;28;20568;-74
2023/05/20 01:38:27;;;;;;;2.03;1.47;;;;;;;10.47;100.00;102827.13;5018395;28;20713;-75
2023/05/20 01:40:53;;;;;;;2.23;1.30;;;;;;;10.46;100.00;102835.63;5012306;28;20190;-75
2023/05/20 01:43:20;;;;;;;2.37;1.37;;;;;;;10.42;100.00;102829.44;5009540;28;20222;-74
2023/05/20 01:45:45;;;;;;;2.97;1.33;;;;;;;10.43;100.00;102830.31;5028807;28;20232;-75
2023/05/20 01:48:11;;;;;;;2.53;1.30;;;;;;;10.42;100.00;102834.56;5030538;28;20242;-74
2023/05/20 01:50:37;;;;;;;3.00;1.17;;;;;;;10.41;100.00;102819.13;5031105;28;20622;-75
2023/05/20 01:53:03;;;;;;;3.80;1.27;;;;;;;10.37;100.00;102842.81;5029406;28;20611;-75
2023/05/20 01:55:29;;;;;;;2.33;1.30;;;;;;;10.37;100.00;102837.72;5013844;28;20289;-75
2023/05/20 01:57:55;;;;;;;2.70;1.10;;;;;;;10.36;100.00;102839.38;5010687;28;20313;-74
2023/05/20 02:00:21;;;;;;;2.03;1.20;;;;;;;10.31;100.00;102848.50;4997540;28;20194;-74
2023/05/20 02:02:47;;;;;;;2.97;1.20;;;;;;;10.30;100.00;102853.53;5013349;28;20186;-74
2023/05/20 02:05:13;;;;;;;3.10;1.20;;;;;;;10.30;100.00;102849.31;5013535;28;20229;-75
2023/05/20 02:07:41;;;;;;;1.83;1.00;;;;;;;10.28;100.00;102845.75;5049488;28;20217;-75
2023/05/20 02:10:07;;;;;;;2.27;1.07;;;;;;;10.27;100.00;102850.84;5012425;28;20582;-76
2023/05/20 02:12:32;;;;;;;2.60;1.27;;;;;;;10.19;100.00;102867.47;5029149;28;20618;-75
2023/05/20 02:14:58;;;;;;;2.00;1.30;;;;;;;10.16;100.00;102870.72;5030844;28;20654;-75
2023/05/20 02:17:23;;;;;;;2.97;1.50;;;;;;;10.15;100.00;102874.09;5006921;28;20565;-75
2023/05/20 02:19:48;;;;;;;3.27;1.20;;;;;;;10.19;100.00;102862.34;5016687;28;20648;-75
2023/05/20 02:22:14;;;;;;;3.47;1.40;;;;;;;10.19;100.00;102863.19;5008929;28;20667;-75
2023/05/20 02:24:42;;;;;;;3.07;1.50;;;;;;;10.15;100.00;102863.88;5011331;28;20249;-74
2023/05/20 02:27:08;;;;;;;2.70;1.97;;;;;;;10.13;100.00;102874.81;5012775;28;20835;-75
2023/05/20 02:29:34;;;;;;;2.30;1.37;;;;;;;10.06;100.00;102886.41;5025590;28;20218;-75
2023/05/20 02:31:59;;;;;;;2.07;1.37;;;;;;;10.05;100.00;102887.19;5014990;28;20198;-75
2023/05/20 02:34:28;;;;;;;4.53;1.80;;;;;;;10.07;100.00;102895.84;5005966;28;20244;-75
2023/05/20 02:36:55;;;;;;;2.20;1.30;;;;;;;9.96;100.00;102911.38;5027465;28;20870;-75
2023/05/20 02:39:21;;;;;;;3.97;1.30;;;;;;;9.92;100.00;102917.13;5042153;28;20264;-74
2023/05/20 02:41:46;;;;;;;3.03;1.30;;;;;;;9.90;100.00;102918.72;5011807;28;20668;-73
2023/05/20 02:44:12;;;;;;;2.33;1.33;;;;;;;9.93;100.00;102906.06;5030378;28;20218;-75
2023/05/20 02:46:37;;;;;;;1.90;1.00;;;;;;;9.90;100.00;102905.94;5027005;28;20197;-75
2023/05/20 02:49:03;;;;;;;3.40;1.20;;;;;;;9.89;100.00;102924.59;5012172;28;20267;-75
2023/05/20 02:51:30;;;;;;;2.67;1.17;;;;;;;9.88;100.00;102916.06;5029950;28;20194;-75
2023/05/20 02:53:56;;;;;;;3.27;1.10;;;;;;;9.90;100.00;102917.03;5020063;28;20556;-73
2023/05/20 02:56:21;;;;;;;4.80;1.70;;;;;;;9.82;100.00;102931.06;5025509;28;20194;-75
2023/05/20 02:58:47;;;;;;;4.13;1.90;;;;;;;9.75;100.00;102933.19;5010927;28;20222;-74
2023/05/20 03:01:12;;;;;;;3.10;1.77;;;;;;;9.82;100.00;102931.06;5011401;28;20277;-75
2023/05/20 03:03:39;;;;;;;2.20;1.47;;;;;;;9.81;100.00;102931.88;5019490;28;20210;-75
2023/05/20 03:06:06;;;;;;;3.60;1.50;;;;;;;9.83;100.00;102929.41;5008374;28;20584;-75
2023/05/20 03:08:35;;;;;;;3.50;1.70;;;;;;;9.82;100.00;102925.94;5012101;28;20225;-75
2023/05/20 03:11:01;;;;;;;1.37;1.20;;;;;;;9.73;100.00;102942.47;5008478;28;20233;-76
2023/05/20 03:13:27;;;;;;;2.77;1.20;;;;;;;9.73;100.00;102945.91;5012573;28;20294;-75
2023/05/20 03:15:52;;;;;;;2.10;1.40;;;;;;;9.70;100.00;102955.97;5011899;28;20186;-75
2023/05/20 03:18:18;;;;;;;2.77;1.30;;;;;;;9.70;100.00;102957.63;5016144;28;20218;-74
2023/05/20 03:20:45;;;;;;;3.67;1.20;;;;;;;9.65;100.00;102964.16;5012683;28;20248;-75
2023/05/20 03:23:11;;;;;;;2.10;1.40;;;;;;;9.63;100.00;102974.31;5011526;28;20280;-74
2023/05/20 03:25:37;;;;;;;3.37;1.33;;;;;;;9.61;100.00;102977.56;5014161;28;20289;-73
2023/05/20 03:28:03;;;;;;;1.47;0.90;;;;;;;9.67;100.00;102968.56;4995399;28;20218;-75
2023/05/20 03:30:29;;;;;;;2.30;1.23;;;;;;;9.64;100.00;102968.41;5010050;28;20194;-75
2023/05/20 03:32:56;;;;;;;2.77;1.20;;;;;;;9.63;100.00;102964.06;5011624;28;20190;-75
2023/05/20 03:35:22;;;;;;;2.23;1.20;;;;;;;9.60;100.00;102960.47;5015550;28;20187;-73
2023/05/20 03:37:50;;;;;;;4.33;1.30;;;;;;;9.59;100.00;102951.03;5011599;28;20602;-75
2023/05/20 03:40:16;;;;;;;2.73;1.70;;;;;;;9.60;100.00;102943.47;5010357;28;20320;-75
2023/05/20 03:42:41;;;;;;;3.83;1.40;;;;;;;9.64;100.00;102936.84;5017345;28;20633;-75
2023/05/20 03:45:07;;;;;;;2.80;1.20;;;;;;;9.60;100.00;102955.34;5010721;28;20211;-74
2023/05/20 03:47:40;;;;;;;2.40;1.10;;;;;;;9.56;100.00;102948.31;4999943;28;20234;-74
2023/05/20 03:50:06;;;;;;;1.73;1.30;;;;;;;9.59;100.00;102934.00;5004995;28;20218;-75
2023/05/20 03:52:32;;;;;;;4.70;1.47;;;;;;;9.61;100.00;102931.53;5013706;28;20197;-74
2023/05/20 03:54:58;;;;;;;1.70;1.10;;;;;;;9.68;100.00;102921.72;5029426;28;20183;-74
2023/05/20 03:57:23;;;;;;;3.40;1.40;;;;;;;9.73;100.00;102912.63;5010211;28;20563;-75
2023/05/20 03:59:49;;;;;;;2.37;1.20;;;;;;;9.75;100.00;102915.28;5011485;28;20240;-74
2023/05/20 04:02:15;;;;;;;3.03;1.63;;;;;;;9.77;100.00;102911.16;5008120;28;20198;-75
2023/05/20 04:04:41;;;;;;;2.27;1.57;;;;;;;9.79;100.00;102913.00;5008872;28;20217;-74
2023/05/20 04:07:08;;;;;;;3.83;1.50;;;;;;;9.80;100.00;102911.31;5011221;28;20209;-74
2023/05/20 04:09:34;;;;;;;3.87;1.57;;;;;;;9.87;100.00;102896.38;5011196;28;20300;-74
2023/05/20 04:12:00;;;;;;;3.10;1.30;;;;;;;9.88;100.00;102893.03;5011535;28;20755;-73
2023/05/20 04:14:25;;;;;;;1.77;1.20;;;;;;;9.84;100.00;102895.34;5010791;28;20193;-74
2023/05/20 04:16:51;;;;;;;2.57;1.43;;;;;;;9.88;100.00;102876.78;5027660;28;20191;-74
2023/05/20 04:19:19;;;;;;;4.17;1.50;;;;;;;9.91;100.00;102874.41;5012171;28;20221;-74
2023/05/20 04:21:44;;;;;;;1.40;1.10;;;;;;;9.92;100.00;102861.72;5029038;28;20190;-74
2023/05/20 04:24:10;;;;;;;2.73;1.23;;;;;;;9.95;100.00;102851.63;5010007;28;20220;-75
2023/05/20 04:26:37;;;;;;;2.60;1.40;;;;;;;10.01;100.00;102835.72;5016411;28;20198;-74
2023/05/20 04:29:03;;;;;;;2.53;1.20;;;;;;;10.06;100.00;102826.66;5010577;28;20240;-74
2023/05/20 04:31:30;;;;;;;3.43;1.23;;;;;;;10.06;100.00;102818.97;5009276;28;20194;-75
2023/05/20 04:33:56;;;;;;;2.57;1.63;;;;;;;10.16;100.00;102811.84;5010959;28;20233;-74
2023/05/20 04:36:27;;;;;;;4.77;1.57;;;;;;;10.17;100.00;102810.16;4990590;28;21521;-75
2023/05/20 04:38:54;;;;;;;2.63;1.33;;;;;;;10.19;100.00;102798.34;5037934;28;20238;-74
2023/05/20 04:41:20;;;;;;;3.13;1.60;;;;;;;10.17;100.00;102816.16;5009271;28;20185;-76
2023/05/20 04:43:45;;;;;;;2.80;1.33;;;;;;;10.25;100.00;102808.88;5014280;28;21018;-75
2023/05/20 04:46:11;;;;;;;1.83;1.37;;;;;;;10.26;100.00;102808.97;5015212;28;20213;-74
2023/05/20 04:48:36;;;;;;;3.90;1.27;;;;;;;10.31;100.00;102802.41;5009365;28;20214;-75
2023/05/20 04:51:02;;;;;;;2.63;1.37;;;;;;;10.36;100.00;102806.09;5028942;28;20194;-74
2023/05/20 04:53:29;;;;;;;2.80;1.37;;;;;;;10.36;100.00;102811.19;5010921;28;20626;-75
2023/05/20 04:55:55;;;;;;;2.93;1.33;;;;;;;10.41;100.00;102803.78;5013254;28;20232;-75
2023/05/20 04:58:25;;;;;;;2.53;1.13;;;;;;;10.48;100.00;102796.47;5010599;28;20260;-75
2023/05/20 05:00:52;;;;;;;2.97;1.10;;;;;;;10.54;100.00;102809.59;5011365;28;20186;-74
2023/05/20 05:03:17;;;;;;;3.33;1.20;;;;;;;10.60;100.00;102796.22;5010979;28;20649;-74
2023/05/20 05:05:43;;;;;;;5.63;1.30;;;;;;;10.64;100.00;102793.00;5013769;28;20278;-75
2023/05/20 05:08:10;;;;;;;4.03;1.60;;;;;;;10.66;100.00;102796.53;5022558;28;20212;-74
2023/05/20 05:10:41;;;;;;;1.33;1.17;;;;;;;10.71;100.00;102805.31;5013242;28;20190;-75
2023/05/20 05:13:07;;;;;;;4.07;1.30;;;;;;;10.72;100.00;102792.59;5018418;28;20201;-75
2023/05/20 05:15:32;;;;;;;2.87;1.37;;;;;;;10.83;100.00;102795.69;5013741;28;20197;-75
2023/05/20 05:17:58;;;;;;;2.37;1.50;;;;;;;10.83;100.00;102800.81;5010247;28;20210;-74
2023/05/20 05:20:23;;;;;;;6.03;2.23;;;;;;;10.91;100.00;102790.13;5014490;28;20194;-76
2023/05/20 05:22:49;;;;;;;2.87;1.40;;;;;;;11.02;100.00;102793.22;5012829;28;20640;-73
2023/05/20 05:25:15;;;;;;;4.17;1.50;;;;;;;11.12;100.00;102785.16;5023472;28;20628;-73
2023/05/20 05:27:41;;;;;;;3.17;1.43;;;;;;;11.22;100.00;102779.66;5023013;28;20320;-74
2023/05/20 05:30:08;;;;;;;2.87;1.50;;;;;;;11.32;100.00;102781.84;5020614;28;20202;-73
2023/05/20 05:32:35;;;;;;;4.80;1.40;;;;;;;11.30;100.00;102786.03;5003481;28;20195;-74
2023/05/20 05:35:01;;;;;;;3.10;1.60;;;;;;;11.36;100.00;102789.78;5013239;28;20221;-73
2023/05/20 05:37:27;;;;;;;4.50;1.40;;;;;;;11.47;100.00;102792.84;5047422;28;20197;-72
2023/05/20 05:39:52;;;;;;;2.73;1.40;;;;;;;11.54;100.00;102798.34;5010065;28;20736;-74
2023/05/20 05:42:18;;;;;;;4.23;1.50;;;;;;;11.70;100.00;102784.56;5053315;28;20624;-74
2023/05/20 05:44:43;;;;;;;4.30;1.30;;;;;;;11.82;100.00;102775.75;5014125;28;20206;-74
2023/05/20 05:47:09;;;;;;;4.57;1.30;;;;;;;11.80;100.00;102777.34;4997177;28;20224;-74
2023/05/20 05:49:35;;;;;;;2.77;1.53;;;;;;;11.92;100.00;102770.19;5013334;28;20202;-74
2023/05/20 05:52:01;;;;;;;3.60;1.33;;;;;;;12.07;100.00;102772.59;5009957;28;20195;-73
2023/05/20 05:54:27;;;;;;;5.83;1.90;;;;;;;12.25;100.00;102755.38;5014663;28;20190;-74
2023/05/20 05:56:53;;;;;;;6.47;1.60;;;;;;;12.36;100.00;102755.03;4997917;28;20197;-74
2023/05/20 05:59:19;;;;;;;4.53;1.50;;;;;;;12.58;100.00;102744.00;5010470;28;20214;-74
2023/05/20 06:01:45;;;;;;;3.33;1.30;;;;;;;12.83;100.00;102728.75;5031932;28;20205;-74
2023/05/20 06:04:10;;;;;;;1.63;1.50;;;;;;;12.93;100.00;102726.59;5031475;28;20220;-74
2023/05/20 06:06:37;;;;;;;3.10;1.70;;;;;;;13.07;100.00;102698.88;5013637;28;20290;-74
2023/05/20 06:09:02;;;;;;;3.93;1.63;;;;;;;13.17;100.00;102721.56;5016540;28;20304;-75
2023/05/20 06:11:28;;;;;;;4.33;2.13;;;;;;;13.20;100.00;102713.97;5013468;28;20193;-74
2023/05/20 06:13:54;;;;;;;4.00;1.47;;;;;;;13.37;100.00;102702.66;4997313;28;20644;-74
2023/05/20 06:16:19;;;;;;;2.67;1.40;;;;;;;13.55;100.00;102687.91;5028539;28;20201;-74
2023/05/20 06:18:45;;;;;;;2.67;1.50;;;;;;;13.60;100.00;102672.59;5013273;28;20213;-74
2023/05/20 06:21:11;;;;;;;4.13;1.83;;;;;;;13.76;100.00;102691.22;5013225;28;20195;-74
2023/05/20 06:23:37;;;;;;;3.20;1.40;;;;;;;13.88;100.00;102665.03;5013235;28;20217;-75
2023/05/20 06:26:05;;;;;;;2.73;1.57;;;;;;;13.99;100.00;102640.56;5009808;28;20195;-75
2023/05/20 06:28:30;;;;;;;3.37;1.93;;;;;;;14.02;100.00;102645.78;5012894;28;20252;-75
2023/05/20 06:30:56;;;;;;;2.33;1.63;;;;;;;14.17;100.00;102636.88;5013441;28;20190;-74
2023/05/20 06:33:27;;;;;;;3.43;1.80;;;;;;;14.33;100.00;102618.56;5020325;28;20241;-74
2023/05/20 06:35:55;;;;;;;5.00;1.97;;;;;;;14.44;100.00;102609.47;5007932;28;20249;-75
2023/05/20 06:38:21;;;;;;;2.30;1.70;;;;;;;14.38;100.00;102621.28;5030218;28;20210;-75
2023/05/20 06:40:50;;;;;;;2.10;1.20;;;;;;;14.50;100.00;102619.97;5014259;28;20228;-74
2023/05/20 06:43:16;;;;;;;3.53;1.60;;;;;;;14.74;100.00;102594.09;5013134;28;20252;-75
2023/05/20 06:46:02;;;;;;;2.43;1.60;;;;;;;14.83;100.00;102591.78;5026324;28;20267;-75
2023/05/20 06:48:33;;;;;;;3.17;1.80;;;;;;;15.03;100.00;102595.84;5011069;28;20221;-74
2023/05/20 06:50:59;;;;;;;3.57;1.63;;;;;;;15.22;100.00;102536.16;5013411;28;20194;-74
2023/05/20 06:53:25;;;;;;;2.67;1.53;;;;;;;15.38;100.00;102523.75;5017400;28;20582;-75
2023/05/20 06:55:54;;;;;;;2.23;1.53;;;;;;;15.51;100.00;102494.00;5030930;28;20682;-76
2023/05/20 06:58:20;;;;;;;4.27;1.90;;;;;;;15.55;100.00;102507.00;5012368;28;20214;-75
2023/05/20 07:00:46;;;;;;;3.40;1.53;;;;;;;15.75;100.00;102477.38;5030767;28;20213;-73
2023/05/20 07:03:13;;;;;;;3.33;1.60;;;;;;;16.00;100.00;102497.81;5007678;28;20194;-75
2023/05/20 07:05:38;;;;;;;3.10;1.60;;;;;;;16.06;100.00;102474.69;5020045;28;20245;-75
2023/05/20 07:08:05;;;;;;;4.30;1.57;;;;;;;16.23;100.00;102468.22;4997067;28;20691;-75
2023/05/20 07:10:31;;;;;;;5.50;1.73;;;;;;;16.41;100.00;102432.44;5012653;28;20209;-75
2023/05/20 07:12:56;;;;;;;5.00;2.00;;;;;;;16.62;100.00;102422.53;5012577;28;20252;-75
2023/05/20 07:15:22;;;;;;;6.03;2.03;;;;;;;16.75;100.00;102408.13;5014877;28;20277;-75
2023/05/20 07:17:47;;;;;;;2.87;1.90;;;;;;;16.57;100.00;102363.81;5019258;28;20598;-75
2023/05/20 07:20:13;;;;;;;2.40;1.63;;;;;;;17.00;100.00;102384.47;4992508;28;20326;-75
2023/05/20 07:22:39;;;;;;;5.93;2.20;;;;;;;17.18;100.00;102366.66;5020438;28;20194;-75
2023/05/20 07:25:19;;;;;;;2.10;1.90;;;;;;;17.29;100.00;102371.16;5010451;28;20229;-75
2023/05/20 07:27:45;;;;;;;4.30;1.70;;;;;;;17.55;97.41;102340.53;5011813;28;20679;-75
2023/05/20 07:30:11;;;;;;;3.83;1.87;;;;;;;17.76;95.65;102313.19;5011555;28;20195;-75
2023/05/20 07:32:38;;;;;;;2.77;1.60;;;;;;;18.05;95.72;102326.56;5011205;28;20210;-75
2023/05/20 07:35:04;;;;;;;2.47;1.80;;;;;;;17.94;90.54;102297.00;5011861;28;20199;-75
2023/05/20 07:37:30;;;;;;;3.40;1.70;;;;;;;18.05;88.48;102291.09;5012150;28;20205;-76
2023/05/20 07:39:55;;;;;;;3.40;1.50;;;;;;;18.16;88.01;102301.63;5011933;28;20195;-74
2023/05/20 07:42:21;;;;;;;3.27;1.60;;;;;;;18.29;91.62;102322.50;5000753;28;20556;-74
2023/05/20 07:44:49;;;;;;;3.70;1.87;;;;;;;18.26;84.06;102308.66;4996045;28;20723;-75
2023/05/20 07:47:15;;;;;;;2.87;1.67;;;;;;;18.42;81.12;102300.25;5019049;28;20201;-75
2023/05/20 07:49:43;;;;;;;2.97;1.93;;;;;;;18.48;84.92;102340.09;5029250;28;20211;-76
2023/05/20 07:52:08;;;;;;;3.93;1.70;;;;;;;18.83;86.27;102343.06;5029583;28;20199;-76
2023/05/20 07:54:35;;;;;;;3.07;1.70;;;;;;;18.90;82.72;102332.75;5006715;28;20218;-76
2023/05/20 07:57:01;;;;;;;3.13;1.50;;;;;;;18.84;73.62;102300.66;5011439;28;20194;-76
2023/05/20 07:59:28;;;;;;;2.67;1.70;;;;;;;18.81;74.77;102305.81;5010885;28;20234;-76
2023/05/20 08:01:53;;;;;;;2.90;1.77;;;;;;;18.52;78.19;102335.81;5016719;28;20776;-76
2023/05/20 08:04:19;;;;;;;2.17;1.80;;;;;;;18.48;82.28;102379.00;4994305;28;20218;-76
2023/05/20 08:06:45;;;;;;;2.63;1.70;;;;;;;18.54;79.32;102347.94;5012041;28;20767;-75
2023/05/20 08:09:18;;;;;;;3.83;1.60;;;;;;;18.65;78.86;102353.25;5007839;28;20279;-75
2023/05/20 08:11:47;;;;;;;1.70;1.50;;;;;;;18.67;79.18;102357.59;5011185;28;20191;-75
2023/05/20 08:14:13;;;;;;;2.57;1.57;;;;;;;19.18;75.04;102321.75;5011465;28;20269;-76
2023/05/20 08:16:42;;;;;;;2.77;1.43;;;;;;;18.96;74.31;102332.78;5019075;28;20200;-76
2023/05/20 08:19:07;;;;;;;2.30;1.60;;;;;;;19.03;71.26;102324.19;5028905;28;20218;-76
2023/05/20 08:21:34;;;;;;;2.23;1.63;;;;;;;18.92;73.10;102345.72;5010740;28;20199;-75
2023/05/20 08:24:00;;;;;;;5.03;1.73;;;;;;;18.45;73.92;102331.38;5010214;28;20232;-75
2023/05/20 08:26:26;;;;;;;3.83;1.40;;;;;;;18.67;72.83;102334.25;5008941;28;20276;-76
2023/05/20 08:28:51;;;;;;;2.57;1.60;;;;;;;18.91;72.66;102326.69;4994675;28;20316;-76
2023/05/20 08:31:18;;;;;;;4.57;2.10;;;;;;;19.14;74.85;102350.25;5017495;28;20198;-76
2023/05/20 08:33:44;;;;;;;3.17;1.47;;;;;;;19.21;73.22;102339.06;5006107;28;20792;-76
2023/05/20 08:36:09;;;;;;;1.70;1.57;;;;;;;18.98;76.38;102362.22;5035498;28;20284;-75
2023/05/20 08:38:35;;;;;;;3.27;1.90;;;;;;;18.62;75.25;102355.81;5027943;28;20629;-75
2023/05/20 08:41:01;;;;;;;3.73;1.93;;;;;;;18.57;71.99;102341.91;5007835;28;20757;-75
2023/05/20 08:43:26;;;;;;;2.17;1.80;;;;;;;18.38;75.42;102358.13;5009346;28;20570;-74
2023/05/20 08:45:52;;;;;;;3.07;1.57;;;;;;;18.51;74.73;102344.44;5004763;28;20914;-75
2023/05/20 08:48:21;;;;;;;1.90;1.60;;;;;;;18.52;71.41;102330.59;5027048;28;20222;-74
2023/05/20 08:50:50;;;;;;;2.30;1.63;;;;;;;19.31;73.21;102335.72;5026096;28;20402;-75
2023/05/20 08:53:16;;;;;;;2.80;1.67;;;;;;;19.53;72.76;102332.44;5031551;28;20199;-74
2023/05/20 08:55:45;;;;;;;3.57;1.57;;;;;;;19.66;65.82;102292.66;5028308;28;20200;-74
2023/05/20 08:58:11;;;;;;;2.67;1.50;;;;;;;19.44;63.71;102298.56;5025250;28;20218;-74
2023/05/20 09:00:37;;;;;;;2.33;1.47;;;;;;;19.30;64.54;102321.84;5024736;28;20205;-74
2023/05/20 09:03:03;;;;;;;2.57;1.53;;;;;;;19.76;62.24;102315.25;5023714;28;20199;-74
2023/05/20 09:05:28;;;;;;;1.50;1.27;;;;;;;19.33;59.58;102298.50;5028504;28;20209;-76
2023/05/20 09:08:05;;;;;;;3.33;1.47;;;;;;;18.45;62.33;102341.75;5028974;28;20214;-72
2023/05/20 09:10:30;;;;;;;3.87;2.10;;;;;;;18.40;65.31;102380.63;5020800;28;20233;-75
2023/05/20 09:12:56;;;;;;;2.50;1.47;;;;;;;18.24;65.83;102390.78;5037479;28;20636;-74
2023/05/20 09:15:21;;;;;;;4.47;2.00;;;;;;;18.04;69.98;102415.53;5029372;28;20193;-75
2023/05/20 09:17:48;;;;;;;2.70;1.30;;;;;;;17.87;71.45;102448.13;5027087;28;20614;-74
2023/05/20 09:20:14;;;;;;;2.50;1.60;;;;;;;17.65;75.03;102456.41;5017396;28;20285;-75
2023/05/20 09:22:40;;;;;;;1.93;1.60;;;;;;;17.81;72.51;102458.38;5027062;28;20194;-73
2023/05/20 09:25:06;;;;;;;2.17;1.60;;;;;;;17.48;75.06;102463.91;5027949;28;20283;-73
2023/05/20 09:27:32;;;;;;;3.10;1.60;;;;;;;17.29;77.29;102485.13;5001266;28;20274;-74
2023/05/20 09:29:58;;;;;;;2.03;1.50;;;;;;;17.20;80.31;102502.19;5031129;28;20206;-74
2023/05/20 09:32:26;;;;;;;1.93;1.50;;;;;;;17.57;80.18;102502.03;5027906;28;20269;-75
2023/05/20 09:34:52;;;;;;;2.73;1.60;;;;;;;17.52;79.67;102490.72;5034689;28;20194;-74
2023/05/20 09:37:20;;;;;;;5.07;1.60;;;;;;;17.59;79.01;102493.44;5026770;28;20205;-73
2023/05/20 09:39:59;;;;;;;2.27;1.63;;;;;;;18.04;80.65;102494.22;5017558;28;20297;-73
2023/05/20 09:42:29;;;;;;;3.23;1.53;;;;;;;17.99;75.57;102448.31;5031405;28;20647;-74
2023/05/20 09:44:58;;;;;;;2.83;1.70;;;;;;;18.07;73.97;102428.56;5025450;28;20222;-74
2023/05/20 09:47:24;;;;;;;5.70;1.70;;;;;;;18.49;75.53;102447.31;5016316;28;20252;-75
2023/05/20 09:49:51;;;;;;;2.93;1.57;;;;;;;18.32;72.89;102404.69;5018871;28;20199;-72
2023/05/20 09:52:17;;;;;;;3.47;1.47;;;;;;;18.86;75.64;102419.25;5019618;28;20563;-74
2023/05/20 09:54:43;;;;;;;2.73;1.60;;;;;;;19.31;69.69;102367.78;5023472;28;20218;-76
2023/05/20 09:57:09;;;;;;;4.63;1.87;;;;;;;19.07;68.27;102356.25;5012419;28;20267;-77
2023/05/20 09:59:37;;;;;;;2.80;1.53;;;;;;;19.22;63.55;102318.34;5026231;28;20210;-77
2023/05/20 10:02:04;;;;;;;3.30;1.90;;;;;;;19.28;65.90;102327.88;5012044;28;20252;-77
2023/05/20 10:04:31;;;;;;;2.57;1.63;;;;;;;19.31;64.68;102336.59;5022913;28;20306;-77
2023/05/20 10:07:19;;;;;;;2.07;1.53;;;;;;;19.14;65.77;102345.06;5031500;28;20351;-77
2023/05/20 10:10:16;;;;;;;2.60;1.87;;;;;;;18.96;67.74;102360.47;5032014;28;20233;-77
2023/05/20 10:12:41;;;;;;;3.60;1.53;;;;;;;19.22;71.96;102388.47;5032915;28;20272;-76
2023/05/20 10:15:22;;;;;;;2.30;1.77;;;;;;;18.78;67.27;102362.88;5045383;28;20198;-76
2023/05/20 10:18:28;;;;;;;2.63;1.60;;;;;;;18.93;71.59;102379.50;5028988;28;20221;-75
2023/05/20 10:20:53;;;;;;;4.13;2.03;;;;;;;18.52;73.20;102400.66;5035639;28;20606;-77
2023/05/20 10:23:29;;;;;;;2.50;1.60;;;;;;;18.69;74.08;102404.31;5027446;28;20193;-76
2023/05/20 10:25:57;;;;;;;3.40;2.07;;;;;;;18.49;75.45;102411.88;5032881;28;20227;-77
2023/05/20 10:28:37;;;;;;;5.17;1.80;;;;;;;18.50;75.24;102415.34;5032099;28;20210;-77
2023/05/20 10:31:15;;;;;;;3.27;2.17;;;;;;;18.50;78.44;102420.53;5027190;28;20210;-77
2023/05/20 10:33:43;;;;;;;3.90;1.80;;;;;;;18.69;78.03;102430.25;5032809;28;20245;-77
2023/05/20 10:36:08;;;;;;;3.90;2.10;;;;;;;18.60;82.61;102438.81;5023685;28;20203;-77
2023/05/20 10:38:34;;;;;;;3.13;1.80;;;;;;;18.51;80.45;102432.66;5030463;28;20221;-77
2023/05/20 10:41:10;;;;;;;4.43;1.80;;;;;;;18.65;82.35;102452.72;5015518;28;20221;-76
2023/05/20 10:43:35;;;;;;;3.67;1.80;;;;;;;18.07;77.21;102421.66;5029459;28;20659;-76
2023/05/20 10:46:01;;;;;;;4.93;2.20;;;;;;;18.05;79.65;102428.53;5032404;28;20222;-74
2023/05/20 10:48:31;;;;;;;4.07;1.83;;;;;;;18.24;83.76;102434.84;5024433;28;20222;-76
2023/05/20 10:51:05;;;;;;;4.27;2.50;;;;;;;18.26;84.98;102459.09;5031912;28;20209;-77
2023/05/20 10:53:43;;;;;;;5.30;2.20;;;;;;;17.97;86.29;102478.53;5021741;28;20190;-77
2023/05/20 10:56:17;;;;;;;5.10;2.40;;;;;;;17.91;83.97;102468.94;5032816;28;20223;-74
2023/05/20 10:58:43;;;;;;;5.03;2.10;;;;;;;17.82;85.61;102476.56;5029672;28;20214;-75
2023/05/20 11:01:09;;;;;;;2.97;2.00;;;;;;;17.65;87.41;102474.56;5031507;28;20225;-77
2023/05/20 11:03:35;;;;;;;5.20;2.30;;;;;;;17.76;88.81;102480.78;5027496;28;20192;-77
2023/05/20 11:06:01;;;;;;;4.57;2.50;;;;;;;17.65;85.22;102471.97;5035458;28;20200;-77
2023/05/20 11:08:30;;;;;;;4.47;2.10;;;;;;;17.62;86.67;102471.91;5033066;28;20304;-77
2023/05/20 11:10:56;;;;;;;2.87;2.30;;;;;;;17.75;82.30;102442.75;5030038;28;20198;-77
2023/05/20 11:13:22;;;;;;;3.60;2.43;;;;;;;17.82;83.35;102426.47;5012928;28;20198;-77
2023/05/20 11:15:48;;;;;;;2.97;1.93;;;;;;;17.90;84.87;102430.91;5019594;28;20252;-77
2023/05/20 11:18:14;;;;;;;4.43;2.20;;;;;;;17.88;82.06;102429.13;5016197;28;20214;-77
2023/05/20 11:20:40;;;;;;;2.57;1.70;;;;;;;17.98;85.72;102446.56;5030933;28;20197;-77